Hillsboro, Illinois
Current Conditions -  °F | °C
As of 4:35 AM on Monday 20 Oct 2014 (Local Time) from K3LF Reporting Station
Scattered Clouds Scattered Clouds  
Wind Chill: 47°   Ceiling: Unl
Heat Index: 49°   Visibility: 10mi
Dew Point: 46°   Wind: 6mph
Humidity: 87%   Direction: 180°S
Pressure: 29.95"   Gusts: NA
Location:  39.16°N, 89.49°W
Report Text: K3LF 200935Z AUTO 18005KT 10SM SCT100 10/08 A2995 RMK AO2 T00950075
Loading
Personal Weather Stations






























Interactive Weather Map
Tropical Storm Tracking
New forecast layout! Learn more

10-Day Weather Forecast

Advertisements
Track Severe Weather on mobile